Portada
METAR-TAF:

METAR-TAF

Aeroports :

Tientsin, Xina

latitud: 39-11N, longitud: 117-21E, altitud: 3 m

Observació

L'informe es va fer fa 41 minuts, a les 15:00 UTC
Vent 4 kt del Sud/Sud-Oest
Temperatura 17°C
Humitat 88%
Pressió 1011 hPa
Visibilitat: 4500 m
boirina

METAR: ZBTJ 251500Z 20002MPS 4500 BR NSC 17/15 Q1011 NOSIG

Hora: 23:41 (15:41 UTC)

Pronòstic

L'informe es va fer fa 5 hores i 38 minuts, a les 10:03 UTC
Pronòstic vàlid del 25 a les 12 UTC al 26 a les 12 UTC
Vent 6 kt del Sud
Visibilitat: 5000 m
calitja
Temporalment
l' 25 a les 12 UTC al 25 a les 16 UTC
Núvols disperses a una alçada de 3000 ft, Cumulonimbus.
Cel ennuvolat a una alçada de 4000 ft
tempesta, pluja

TAF: ZBTJ 251003Z 2512/2612 18003MPS 5000 HZ NSC TX25/2607Z TN14/2521Z TEMPO 2512/2516 TSRA SCT030CB BKN040

Observacions i pronòstics meteorològics de més de 4000 aeroports (METAR i TAF).

Les estacions disponibles són els punts grocs i vermells al mapa.

Posi el ratolí al punt desitjat per veure el nom de l'estació.

Feu clic per veure les observacions i els pronòstics meteorològics.

Per canviar el mapa: feu clic els botons verds amb una creu de color negre per apropar; al botó verd amb un guió per allunyar la imatge; o en les fletxes verdes per a mapes adjacents.


METAR-TAF: